sensor_id;sensor_type;location;lat;lon;timestamp;temperature;humidity
29007;DHT22;16104;48.642;9.008;2022-11-15T00:00:49;11.30;64.70
29007;DHT22;16104;48.642;9.008;2022-11-15T00:05:45;11.30;65.00
29007;DHT22;16104;48.642;9.008;2022-11-15T00:10:41;11.20;64.90
29007;DHT22;16104;48.642;9.008;2022-11-15T00:15:38;11.20;64.90
29007;DHT22;16104;48.642;9.008;2022-11-15T00:20:34;11.20;64.90
29007;DHT22;16104;48.642;9.008;2022-11-15T00:25:30;11.20;64.80
29007;DHT22;16104;48.642;9.008;2022-11-15T00:30:26;11.20;64.80
29007;DHT22;16104;48.642;9.008;2022-11-15T00:35:22;11.20;64.80
29007;DHT22;16104;48.642;9.008;2022-11-15T00:40:18;11.20;64.70
29007;DHT22;16104;48.642;9.008;2022-11-15T00:45:13;11.10;64.50
29007;DHT22;16104;48.642;9.008;2022-11-15T00:50:09;11.10;64.50
29007;DHT22;16104;48.642;9.008;2022-11-15T00:55:05;11.00;64.50
29007;DHT22;16104;48.642;9.008;2022-11-15T01:00:00;10.90;64.60
29007;DHT22;16104;48.642;9.008;2022-11-15T02:00:55;10.70;65.60
29007;DHT22;16104;48.642;9.008;2022-11-15T02:05:51;10.70;65.60
29007;DHT22;16104;48.642;9.008;2022-11-15T02:10:46;10.70;65.70
29007;DHT22;16104;48.642;9.008;2022-11-15T03:07:16;10.60;65.90
29007;DHT22;16104;48.642;9.008;2022-11-15T04:03:03;10.50;66.80
29007;DHT22;16104;48.642;9.008;2022-11-15T04:07:59;10.60;66.90
29007;DHT22;16104;48.642;9.008;2022-11-15T04:12:54;10.60;66.90
29007;DHT22;16104;48.642;9.008;2022-11-15T04:17:53;10.50;66.80
29007;DHT22;16104;48.642;9.008;2022-11-15T04:22:48;10.50;66.90
29007;DHT22;16104;48.642;9.008;2022-11-15T04:28:03;10.50;66.80
29007;DHT22;16104;48.642;9.008;2022-11-15T04:32:58;10.50;66.90
29007;DHT22;16104;48.642;9.008;2022-11-15T04:37:54;10.60;67.00
29007;DHT22;16104;48.642;9.008;2022-11-15T04:42:50;10.60;67.10
29007;DHT22;16104;48.642;9.008;2022-11-15T04:47:46;10.60;67.20
29007;DHT22;16104;48.642;9.008;2022-11-15T04:52:44;10.60;67.30
29007;DHT22;16104;48.642;9.008;2022-11-15T04:57:44;10.60;67.30
29007;DHT22;16104;48.642;9.008;2022-11-15T05:02:40;10.60;67.30
29007;DHT22;16104;48.642;9.008;2022-11-15T05:07:54;10.70;67.20
29007;DHT22;16104;48.642;9.008;2022-11-15T05:12:50;10.60;67.90
29007;DHT22;16104;48.642;9.008;2022-11-15T05:17:45;10.60;67.00
29007;DHT22;16104;48.642;9.008;2022-11-15T05:22:41;10.60;66.90
29007;DHT22;16104;48.642;9.008;2022-11-15T05:27:37;10.70;67.00
29007;DHT22;16104;48.642;9.008;2022-11-15T05:32:32;10.60;66.80
29007;DHT22;16104;48.642;9.008;2022-11-15T05:37:28;10.60;66.70
29007;DHT22;16104;48.642;9.008;2022-11-15T05:42:24;10.60;66.80
29007;DHT22;16104;48.642;9.008;2022-11-15T05:47:24;10.60;66.90
29007;DHT22;16104;48.642;9.008;2022-11-15T05:52:25;10.60;66.90
29007;DHT22;16104;48.642;9.008;2022-11-15T05:57:21;10.50;66.90
29007;DHT22;16104;48.642;9.008;2022-11-15T06:02:16;10.50;66.80
29007;DHT22;16104;48.642;9.008;2022-11-15T06:07:12;10.50;66.80
29007;DHT22;16104;48.642;9.008;2022-11-15T06:12:07;10.50;66.70
29007;DHT22;16104;48.642;9.008;2022-11-15T06:17:03;10.50;66.80
29007;DHT22;16104;48.642;9.008;2022-11-15T06:22:00;10.40;66.80
29007;DHT22;16104;48.642;9.008;2022-11-15T06:26:55;10.40;66.70
29007;DHT22;16104;48.642;9.008;2022-11-15T06:31:52;10.40;66.80
29007;DHT22;16104;48.642;9.008;2022-11-15T06:36:48;10.30;66.80
29007;DHT22;16104;48.642;9.008;2022-11-15T06:41:43;10.30;66.90
29007;DHT22;16104;48.642;9.008;2022-11-15T06:46:39;10.30;67.00
29007;DHT22;16104;48.642;9.008;2022-11-15T06:51:35;10.30;67.30
29007;DHT22;16104;48.642;9.008;2022-11-15T06:56:30;10.30;67.50
29007;DHT22;16104;48.642;9.008;2022-11-15T07:01:26;10.30;67.60
29007;DHT22;16104;48.642;9.008;2022-11-15T07:06:21;10.40;67.70
29007;DHT22;16104;48.642;9.008;2022-11-15T07:11:17;10.40;67.70
29007;DHT22;16104;48.642;9.008;2022-11-15T07:16:12;10.40;67.70
29007;DHT22;16104;48.642;9.008;2022-11-15T07:21:10;10.40;67.80
29007;DHT22;16104;48.642;9.008;2022-11-15T07:26:06;10.50;68.00
29007;DHT22;16104;48.642;9.008;2022-11-15T07:31:07;10.50;68.10
29007;DHT22;16104;48.642;9.008;2022-11-15T07:36:04;10.60;68.40
29007;DHT22;16104;48.642;9.008;2022-11-15T07:41:02;10.70;68.40
29007;DHT22;16104;48.642;9.008;2022-11-15T07:45:58;10.80;68.70
29007;DHT22;16104;48.642;9.008;2022-11-15T07:50:54;10.90;68.70
29007;DHT22;16104;48.642;9.008;2022-11-15T07:55:50;11.00;68.70
29007;DHT22;16104;48.642;9.008;2022-11-15T08:00:45;11.10;68.60
29007;DHT22;16104;48.642;9.008;2022-11-15T08:05:42;11.20;68.20
29007;DHT22;16104;48.642;9.008;2022-11-15T08:10:37;11.40;68.10
29007;DHT22;16104;48.642;9.008;2022-11-15T08:15:34;11.40;67.80
29007;DHT22;16104;48.642;9.008;2022-11-15T08:20:30;11.50;67.60
29007;DHT22;16104;48.642;9.008;2022-11-15T08:25:28;11.60;67.50
29007;DHT22;16104;48.642;9.008;2022-11-15T08:30:23;11.70;67.30
29007;DHT22;16104;48.642;9.008;2022-11-15T08:35:20;11.80;67.40
29007;DHT22;16104;48.642;9.008;2022-11-15T08:40:16;11.90;67.30
29007;DHT22;16104;48.642;9.008;2022-11-15T08:45:13;12.00;67.20
29007;DHT22;16104;48.642;9.008;2022-11-15T08:50:08;12.10;67.10
29007;DHT22;16104;48.642;9.008;2022-11-15T08:55:04;12.30;67.10
29007;DHT22;16104;48.642;9.008;2022-11-15T09:00:00;12.50;67.00
29007;DHT22;16104;48.642;9.008;2022-11-15T09:04:56;12.60;66.90
29007;DHT22;16104;48.642;9.008;2022-11-15T09:09:51;12.80;67.40
29007;DHT22;16104;48.642;9.008;2022-11-15T09:14:47;13.00;67.20
29007;DHT22;16104;48.642;9.008;2022-11-15T09:19:42;13.10;66.90
29007;DHT22;16104;48.642;9.008;2022-11-15T09:24:38;13.30;66.40
29007;DHT22;16104;48.642;9.008;2022-11-15T09:29:33;13.50;66.30
29007;DHT22;16104;48.642;9.008;2022-11-15T09:34:29;13.60;66.00
29007;DHT22;16104;48.642;9.008;2022-11-15T09:39:24;13.80;65.80
29007;DHT22;16104;48.642;9.008;2022-11-15T09:44:57;14.00;65.40
29007;DHT22;16104;48.642;9.008;2022-11-15T09:49:58;14.20;65.10
29007;DHT22;16104;48.642;9.008;2022-11-15T09:54:54;14.40;65.20
29007;DHT22;16104;48.642;9.008;2022-11-15T10:00:15;14.50;65.40
29007;DHT22;16104;48.642;9.008;2022-11-15T10:05:16;14.70;64.80
29007;DHT22;16104;48.642;9.008;2022-11-15T10:15:25;15.00;63.40
29007;DHT22;16104;48.642;9.008;2022-11-15T10:20:24;15.10;63.50
29007;DHT22;16104;48.642;9.008;2022-11-15T10:25:28;15.20;62.50
29007;DHT22;16104;48.642;9.008;2022-11-15T10:30:32;15.40;62.00
29007;DHT22;16104;48.642;9.008;2022-11-15T10:35:30;15.50;61.70
29007;DHT22;16104;48.642;9.008;2022-11-15T10:40:25;15.60;61.40
29007;DHT22;16104;48.642;9.008;2022-11-15T10:45:27;15.80;61.40
29007;DHT22;16104;48.642;9.008;2022-11-15T10:50:28;15.80;60.10
29007;DHT22;16104;48.642;9.008;2022-11-15T10:55:31;15.90;60.30
29007;DHT22;16104;48.642;9.008;2022-11-15T11:00:32;15.90;60.40
29007;DHT22;16104;48.642;9.008;2022-11-15T11:05:38;16.00;60.10
29007;DHT22;16104;48.642;9.008;2022-11-15T11:10:33;16.00;61.00
29007;DHT22;16104;48.642;9.008;2022-11-15T11:15:29;16.10;60.60
29007;DHT22;16104;48.642;9.008;2022-11-15T11:20:46;16.10;60.60
29007;DHT22;16104;48.642;9.008;2022-11-15T11:31:23;16.20;59.10
29007;DHT22;16104;48.642;9.008;2022-11-15T11:36:40;16.30;59.80
29007;DHT22;16104;48.642;9.008;2022-11-15T11:41:59;16.30;59.40
29007;DHT22;16104;48.642;9.008;2022-11-15T11:46:59;16.30;59.30
29007;DHT22;16104;48.642;9.008;2022-11-15T11:57:00;16.50;59.50
29007;DHT22;16104;48.642;9.008;2022-11-15T12:01:57;16.50;59.40
29007;DHT22;16104;48.642;9.008;2022-11-15T12:07:01;16.60;59.60
29007;DHT22;16104;48.642;9.008;2022-11-15T12:17:02;16.70;58.70
29007;DHT22;16104;48.642;9.008;2022-11-15T12:22:21;16.70;58.80
29007;DHT22;16104;48.642;9.008;2022-11-15T12:27:47;16.80;57.70
29007;DHT22;16104;48.642;9.008;2022-11-15T12:33:01;16.70;58.00
29007;DHT22;16104;48.642;9.008;2022-11-15T12:37:57;16.80;58.40
29007;DHT22;16104;48.642;9.008;2022-11-15T12:58:28;16.80;58.30
29007;DHT22;16104;48.642;9.008;2022-11-15T13:03:34;16.90;58.40
29007;DHT22;16104;48.642;9.008;2022-11-15T13:08:42;17.00;58.40
29007;DHT22;16104;48.642;9.008;2022-11-15T13:13:43;16.90;57.80
29007;DHT22;16104;48.642;9.008;2022-11-15T13:18:40;17.00;58.20
29007;DHT22;16104;48.642;9.008;2022-11-15T13:23:36;17.00;58.40
29007;DHT22;16104;48.642;9.008;2022-11-15T13:28:51;17.00;58.50
29007;DHT22;16104;48.642;9.008;2022-11-15T13:33:50;17.00;58.10
29007;DHT22;16104;48.642;9.008;2022-11-15T13:38:54;17.00;58.50
29007;DHT22;16104;48.642;9.008;2022-11-15T13:43:51;17.00;58.00
29007;DHT22;16104;48.642;9.008;2022-11-15T13:48:57;17.10;58.70
29007;DHT22;16104;48.642;9.008;2022-11-15T13:54:05;17.00;58.60
29007;DHT22;16104;48.642;9.008;2022-11-15T13:59:26;17.00;59.00
29007;DHT22;16104;48.642;9.008;2022-11-15T14:04:23;17.00;59.10
29007;DHT22;16104;48.642;9.008;2022-11-15T14:09:39;16.90;59.30
29007;DHT22;16104;48.642;9.008;2022-11-15T14:14:45;17.00;59.60
29007;DHT22;16104;48.642;9.008;2022-11-15T14:19:41;17.00;59.80
29007;DHT22;16104;48.642;9.008;2022-11-15T14:24:37;17.00;59.60
29007;DHT22;16104;48.642;9.008;2022-11-15T14:29:33;17.00;59.80
29007;DHT22;16104;48.642;9.008;2022-11-15T14:34:31;17.00;59.60
29007;DHT22;16104;48.642;9.008;2022-11-15T14:39:27;17.00;59.60
29007;DHT22;16104;48.642;9.008;2022-11-15T14:44:22;17.10;59.60
29007;DHT22;16104;48.642;9.008;2022-11-15T14:49:18;17.00;59.50
29007;DHT22;16104;48.642;9.008;2022-11-15T14:54:13;16.90;59.50
29007;DHT22;16104;48.642;9.008;2022-11-15T14:59:09;16.90;59.70
29007;DHT22;16104;48.642;9.008;2022-11-15T15:04:04;16.90;59.80
29007;DHT22;16104;48.642;9.008;2022-11-15T15:09:00;16.70;59.80
29007;DHT22;16104;48.642;9.008;2022-11-15T15:13:56;16.70;59.80
29007;DHT22;16104;48.642;9.008;2022-11-15T15:18:53;16.60;60.00
29007;DHT22;16104;48.642;9.008;2022-11-15T15:23:49;16.50;60.10
29007;DHT22;16104;48.642;9.008;2022-11-15T15:28:44;16.50;60.40
29007;DHT22;16104;48.642;9.008;2022-11-15T15:33:40;16.40;60.40
29007;DHT22;16104;48.642;9.008;2022-11-15T15:38:36;16.30;60.30
29007;DHT22;16104;48.642;9.008;2022-11-15T15:43:31;16.20;60.30
29007;DHT22;16104;48.642;9.008;2022-11-15T15:48:27;16.20;60.40
29007;DHT22;16104;48.642;9.008;2022-11-15T15:53:22;16.10;60.40
29007;DHT22;16104;48.642;9.008;2022-11-15T15:58:18;16.00;60.50
29007;DHT22;16104;48.642;9.008;2022-11-15T16:03:13;16.00;60.60
29007;DHT22;16104;48.642;9.008;2022-11-15T16:08:23;15.90;60.70
29007;DHT22;16104;48.642;9.008;2022-11-15T16:13:19;15.80;61.00
29007;DHT22;16104;48.642;9.008;2022-11-15T16:18:16;15.80;61.10
29007;DHT22;16104;48.642;9.008;2022-11-15T16:23:14;15.70;61.30
29007;DHT22;16104;48.642;9.008;2022-11-15T16:33:20;15.60;62.10
29007;DHT22;16104;48.642;9.008;2022-11-15T16:38:15;15.50;62.00
29007;DHT22;16104;48.642;9.008;2022-11-15T16:43:11;15.40;61.90
29007;DHT22;16104;48.642;9.008;2022-11-15T16:48:22;15.40;62.10
29007;DHT22;16104;48.642;9.008;2022-11-15T16:53:18;15.30;62.40
29007;DHT22;16104;48.642;9.008;2022-11-15T16:58:13;15.20;62.30
29007;DHT22;16104;48.642;9.008;2022-11-15T17:03:09;15.20;62.40
29007;DHT22;16104;48.642;9.008;2022-11-15T17:08:05;15.20;62.50
29007;DHT22;16104;48.642;9.008;2022-11-15T17:13:00;15.20;62.70
29007;DHT22;16104;48.642;9.008;2022-11-15T17:17:56;15.10;62.70
29007;DHT22;16104;48.642;9.008;2022-11-15T17:22:51;15.10;62.70
29007;DHT22;16104;48.642;9.008;2022-11-15T17:27:47;15.00;62.60
29007;DHT22;16104;48.642;9.008;2022-11-15T17:32:42;15.00;62.50
29007;DHT22;16104;48.642;9.008;2022-11-15T17:37:38;15.00;62.60
29007;DHT22;16104;48.642;9.008;2022-11-15T17:42:33;14.90;62.50
29007;DHT22;16104;48.642;9.008;2022-11-15T17:47:29;14.90;62.50
29007;DHT22;16104;48.642;9.008;2022-11-15T17:52:24;14.90;62.60
29007;DHT22;16104;48.642;9.008;2022-11-15T17:57:20;14.80;62.60
29007;DHT22;16104;48.642;9.008;2022-11-15T18:02:15;14.80;62.70
29007;DHT22;16104;48.642;9.008;2022-11-15T18:07:11;14.80;62.90
29007;DHT22;16104;48.642;9.008;2022-11-15T18:12:09;14.70;63.00
29007;DHT22;16104;48.642;9.008;2022-11-15T18:17:04;14.70;63.10
29007;DHT22;16104;48.642;9.008;2022-11-15T18:22:00;14.70;63.10
29007;DHT22;16104;48.642;9.008;2022-11-15T18:26:59;14.70;63.20
29007;DHT22;16104;48.642;9.008;2022-11-15T18:31:55;14.70;63.30
29007;DHT22;16104;48.642;9.008;2022-11-15T18:36:52;14.70;63.50
29007;DHT22;16104;48.642;9.008;2022-11-15T18:41:48;14.70;63.50
29007;DHT22;16104;48.642;9.008;2022-11-15T18:46:43;14.60;63.50
29007;DHT22;16104;48.642;9.008;2022-11-15T18:51:39;14.60;63.70
29007;DHT22;16104;48.642;9.008;2022-11-15T18:56:36;14.60;63.70
29007;DHT22;16104;48.642;9.008;2022-11-15T19:01:34;14.60;63.70
29007;DHT22;16104;48.642;9.008;2022-11-15T19:06:30;14.60;63.70
29007;DHT22;16104;48.642;9.008;2022-11-15T19:11:27;14.60;63.60
29007;DHT22;16104;48.642;9.008;2022-11-15T19:16:26;14.60;63.50
29007;DHT22;16104;48.642;9.008;2022-11-15T19:21:22;14.60;63.70
29007;DHT22;16104;48.642;9.008;2022-11-15T19:26:19;14.50;64.00
29007;DHT22;16104;48.642;9.008;2022-11-15T19:31:16;14.50;64.20
29007;DHT22;16104;48.642;9.008;2022-11-15T19:36:18;14.50;64.30
29007;DHT22;16104;48.642;9.008;2022-11-15T19:41:16;14.50;64.70
29007;DHT22;16104;48.642;9.008;2022-11-15T19:46:13;14.40;64.80
29007;DHT22;16104;48.642;9.008;2022-11-15T19:51:14;14.40;64.80
29007;DHT22;16104;48.642;9.008;2022-11-15T19:56:13;14.40;65.00
29007;DHT22;16104;48.642;9.008;2022-11-15T20:01:15;14.30;65.00
29007;DHT22;16104;48.642;9.008;2022-11-15T20:06:15;14.30;64.90
29007;DHT22;16104;48.642;9.008;2022-11-15T20:11:11;14.30;65.10
29007;DHT22;16104;48.642;9.008;2022-11-15T20:16:08;14.30;65.20
29007;DHT22;16104;48.642;9.008;2022-11-15T20:21:05;14.30;66.00
29007;DHT22;16104;48.642;9.008;2022-11-15T20:26:00;14.20;65.10
29007;DHT22;16104;48.642;9.008;2022-11-15T20:30:58;14.20;65.00
29007;DHT22;16104;48.642;9.008;2022-11-15T20:35:54;14.20;65.10
29007;DHT22;16104;48.642;9.008;2022-11-15T20:40:50;14.10;65.00
29007;DHT22;16104;48.642;9.008;2022-11-15T20:45:47;14.10;65.10
29007;DHT22;16104;48.642;9.008;2022-11-15T20:50:44;14.10;65.20
29007;DHT22;16104;48.642;9.008;2022-11-15T20:55:42;14.00;65.20
29007;DHT22;16104;48.642;9.008;2022-11-15T21:00:37;14.00;65.40
29007;DHT22;16104;48.642;9.008;2022-11-15T21:05:43;14.00;65.30
29007;DHT22;16104;48.642;9.008;2022-11-15T21:10:39;14.00;65.50
29007;DHT22;16104;48.642;9.008;2022-11-15T21:15:56;13.90;65.00
29007;DHT22;16104;48.642;9.008;2022-11-15T21:20:52;13.90;64.90
29007;DHT22;16104;48.642;9.008;2022-11-15T21:25:51;13.90;65.00
29007;DHT22;16104;48.642;9.008;2022-11-15T21:30:54;13.90;65.20
29007;DHT22;16104;48.642;9.008;2022-11-15T21:35:50;14.00;65.20
29007;DHT22;16104;48.642;9.008;2022-11-15T21:40:46;13.90;65.10
29007;DHT22;16104;48.642;9.008;2022-11-15T21:45:41;13.90;65.00
29007;DHT22;16104;48.642;9.008;2022-11-15T21:50:37;13.90;65.10
29007;DHT22;16104;48.642;9.008;2022-11-15T21:55:32;13.90;65.00
29007;DHT22;16104;48.642;9.008;2022-11-15T22:00:28;13.80;65.10
29007;DHT22;16104;48.642;9.008;2022-11-15T22:05:43;13.80;65.20
29007;DHT22;16104;48.642;9.008;2022-11-15T22:10:39;13.80;65.30
29007;DHT22;16104;48.642;9.008;2022-11-15T22:15:34;13.70;65.30
29007;DHT22;16104;48.642;9.008;2022-11-15T22:20:30;13.70;65.70
29007;DHT22;16104;48.642;9.008;2022-11-15T22:25:25;13.70;65.90
29007;DHT22;16104;48.642;9.008;2022-11-15T22:30:21;13.60;65.80
29007;DHT22;16104;48.642;9.008;2022-11-15T22:35:17;13.60;65.70
29007;DHT22;16104;48.642;9.008;2022-11-15T22:40:12;13.60;65.80
29007;DHT22;16104;48.642;9.008;2022-11-15T22:45:08;13.60;65.90
29007;DHT22;16104;48.642;9.008;2022-11-15T22:50:04;13.60;66.00
29007;DHT22;16104;48.642;9.008;2022-11-15T22:55:00;13.60;66.10
29007;DHT22;16104;48.642;9.008;2022-11-15T22:59:56;13.50;66.20
29007;DHT22;16104;48.642;9.008;2022-11-15T23:04:51;13.60;66.10
29007;DHT22;16104;48.642;9.008;2022-11-15T23:09:47;13.50;65.90
29007;DHT22;16104;48.642;9.008;2022-11-15T23:14:43;13.50;65.60
29007;DHT22;16104;48.642;9.008;2022-11-15T23:19:39;13.50;65.70
29007;DHT22;16104;48.642;9.008;2022-11-15T23:24:34;13.50;65.80
29007;DHT22;16104;48.642;9.008;2022-11-15T23:29:30;13.40;65.80
29007;DHT22;16104;48.642;9.008;2022-11-15T23:34:26;13.40;65.80
29007;DHT22;16104;48.642;9.008;2022-11-15T23:39:22;13.40;65.80
29007;DHT22;16104;48.642;9.008;2022-11-15T23:44:17;13.40;65.80
29007;DHT22;16104;48.642;9.008;2022-11-15T23:49:13;13.30;65.70
29007;DHT22;16104;48.642;9.008;2022-11-15T23:54:09;13.40;66.00
29007;DHT22;16104;48.642;9.008;2022-11-15T23:59:04;13.30;65.90
